Terminal Aerodrome Forecast
Issued by NWS

Home | Current Version | Previous Version | Graphics & Text | Print | Product List | Glossary On
Versions: 1 2 3 4 5 6 7 8 9 10 11 12 13 14 15 16 17 18
000
FTUS43 KABR 232300
TAFMBG
TAF
KMBG 232325Z 2400/2424 33013G21KT P6SM BKN050 OVC120
     FM240300 34006KT P6SM SCT080 BKN100 OVC200
     FM241500 30019G27KT P6SM SKC=

USA.gov is the U.S. government's official web portal to all federal, state and local government web resources and services.